Terminal Aerodrome Forecast
Issued by NWS

Home | Current Version | Previous Version | Text Only | Print | Product List | Glossary On
Versions: 1 2 3 4 5 6 7 8 9 10 11 12
000
FTUS45 KTFX 222335
TAFLWT
TAF
KLWT 222335Z 2300/2324 08006KT P6SM VCTS SCT060CB OVC090
      TEMPO 2300/2302 -TSRA BKN050CB
     FM230200 02010KT P6SM SCT060 BKN090
     FM230700 12006KT 6SM -SHRA OVC035
     FM231500 06006KT P6SM VCSH SCT035 BKN060
     FM231900 04006KT P6SM SCT070 BKN120 PROB30 2321/2324 -TSRA
      BKN050CB=

USA.gov is the U.S. government's official web portal to all federal, state and local government web resources and services.